sensor_id;sensor_type;location;lat;lon;timestamp;P1;durP1;ratioP1;P2;durP2;ratioP2
25045;SDS011;13044;49.304;12.840;2023-08-06T00:01:46;2.50;;;2.30;;
25045;SDS011;13044;49.304;12.840;2023-08-06T00:04:13;2.42;;;2.22;;
25045;SDS011;13044;49.304;12.840;2023-08-06T00:06:40;2.75;;;2.53;;
25045;SDS011;13044;49.304;12.840;2023-08-06T00:09:07;2.33;;;2.15;;
25045;SDS011;13044;49.304;12.840;2023-08-06T00:11:34;2.60;;;2.40;;
25045;SDS011;13044;49.304;12.840;2023-08-06T00:14:01;2.35;;;2.15;;
25045;SDS011;13044;49.304;12.840;2023-08-06T00:16:28;2.53;;;2.30;;
25045;SDS011;13044;49.304;12.840;2023-08-06T00:18:55;2.70;;;2.47;;
25045;SDS011;13044;49.304;12.840;2023-08-06T00:21:22;3.80;;;2.50;;
25045;SDS011;13044;49.304;12.840;2023-08-06T00:23:48;2.50;;;2.30;;
25045;SDS011;13044;49.304;12.840;2023-08-06T00:26:15;3.13;;;2.80;;
25045;SDS011;13044;49.304;12.840;2023-08-06T00:28:42;2.90;;;2.60;;
25045;SDS011;13044;49.304;12.840;2023-08-06T00:31:09;3.20;;;2.70;;
25045;SDS011;13044;49.304;12.840;2023-08-06T00:33:36;2.70;;;2.50;;
25045;SDS011;13044;49.304;12.840;2023-08-06T00:36:03;3.10;;;2.85;;
25045;SDS011;13044;49.304;12.840;2023-08-06T00:38:30;3.05;;;2.63;;
25045;SDS011;13044;49.304;12.840;2023-08-06T00:40:57;3.00;;;2.70;;
25045;SDS011;13044;49.304;12.840;2023-08-06T00:43:24;2.95;;;2.70;;
25045;SDS011;13044;49.304;12.840;2023-08-06T00:45:51;3.03;;;2.83;;
25045;SDS011;13044;49.304;12.840;2023-08-06T00:48:18;3.00;;;2.80;;
25045;SDS011;13044;49.304;12.840;2023-08-06T00:50:45;3.30;;;3.00;;
25045;SDS011;13044;49.304;12.840;2023-08-06T00:53:12;3.38;;;3.05;;
25045;SDS011;13044;49.304;12.840;2023-08-06T00:55:40;5.20;;;3.65;;
25045;SDS011;13044;49.304;12.840;2023-08-06T00:58:08;5.18;;;3.10;;
25045;SDS011;13044;49.304;12.840;2023-08-06T01:00:35;2.95;;;2.58;;
25045;SDS011;13044;49.304;12.840;2023-08-06T01:03:02;3.22;;;2.92;;
25045;SDS011;13044;49.304;12.840;2023-08-06T01:05:29;3.35;;;3.05;;
25045;SDS011;13044;49.304;12.840;2023-08-06T01:11:38;4.03;;;3.40;;
25045;SDS011;13044;49.304;12.840;2023-08-06T01:14:37;4.22;;;3.10;;
25045;SDS011;13044;49.304;12.840;2023-08-06T01:17:14;3.30;;;2.63;;
25045;SDS011;13044;49.304;12.840;2023-08-06T01:19:41;2.88;;;2.63;;
25045;SDS011;13044;49.304;12.840;2023-08-06T01:22:08;3.75;;;3.13;;
25045;SDS011;13044;49.304;12.840;2023-08-06T01:24:35;2.70;;;2.50;;
25045;SDS011;13044;49.304;12.840;2023-08-06T01:29:39;2.58;;;2.28;;
25045;SDS011;13044;49.304;12.840;2023-08-06T01:32:11;3.13;;;2.83;;
25045;SDS011;13044;49.304;12.840;2023-08-06T01:34:41;2.90;;;2.70;;
25045;SDS011;13044;49.304;12.840;2023-08-06T01:37:11;2.70;;;2.50;;
25045;SDS011;13044;49.304;12.840;2023-08-06T01:39:39;2.58;;;2.25;;
25045;SDS011;13044;49.304;12.840;2023-08-06T01:42:09;2.33;;;1.98;;
25045;SDS011;13044;49.304;12.840;2023-08-06T01:44:35;2.58;;;1.98;;
25045;SDS011;13044;49.304;12.840;2023-08-06T01:47:02;2.20;;;1.92;;
25045;SDS011;13044;49.304;12.840;2023-08-06T01:49:30;1.88;;;1.75;;
25045;SDS011;13044;49.304;12.840;2023-08-06T01:51:56;4.18;;;1.90;;
25045;SDS011;13044;49.304;12.840;2023-08-06T01:54:23;2.15;;;1.80;;
25045;SDS011;13044;49.304;12.840;2023-08-06T01:56:50;2.30;;;2.10;;
25045;SDS011;13044;49.304;12.840;2023-08-06T01:59:17;2.10;;;2.00;;
25045;SDS011;13044;49.304;12.840;2023-08-06T02:01:44;4.47;;;2.38;;
25045;SDS011;13044;49.304;12.840;2023-08-06T02:04:11;2.05;;;1.92;;
25045;SDS011;13044;49.304;12.840;2023-08-06T02:06:38;1.98;;;1.88;;
25045;SDS011;13044;49.304;12.840;2023-08-06T02:09:05;2.75;;;2.50;;
25045;SDS011;13044;49.304;12.840;2023-08-06T02:11:32;3.53;;;2.10;;
25045;SDS011;13044;49.304;12.840;2023-08-06T02:13:59;2.55;;;2.35;;
25045;SDS011;13044;49.304;12.840;2023-08-06T02:16:25;2.33;;;2.13;;
25045;SDS011;13044;49.304;12.840;2023-08-06T02:18:52;2.58;;;2.20;;
25045;SDS011;13044;49.304;12.840;2023-08-06T02:21:19;4.03;;;2.70;;
25045;SDS011;13044;49.304;12.840;2023-08-06T02:23:46;3.28;;;2.72;;
25045;SDS011;13044;49.304;12.840;2023-08-06T02:26:13;3.40;;;3.10;;
25045;SDS011;13044;49.304;12.840;2023-08-06T02:28:39;3.25;;;3.00;;
25045;SDS011;13044;49.304;12.840;2023-08-06T02:31:06;2.65;;;2.45;;
25045;SDS011;13044;49.304;12.840;2023-08-06T02:33:33;3.58;;;3.28;;
25045;SDS011;13044;49.304;12.840;2023-08-06T02:36:00;3.60;;;3.30;;
25045;SDS011;13044;49.304;12.840;2023-08-06T02:38:31;3.00;;;2.70;;
25045;SDS011;13044;49.304;12.840;2023-08-06T02:40:58;3.67;;;3.38;;
25045;SDS011;13044;49.304;12.840;2023-08-06T02:43:25;3.90;;;3.58;;
25045;SDS011;13044;49.304;12.840;2023-08-06T02:45:56;4.05;;;3.75;;
25045;SDS011;13044;49.304;12.840;2023-08-06T02:48:24;4.65;;;4.25;;
25045;SDS011;13044;49.304;12.840;2023-08-06T02:50:51;4.68;;;4.28;;
25045;SDS011;13044;49.304;12.840;2023-08-06T02:53:18;5.35;;;4.85;;
25045;SDS011;13044;49.304;12.840;2023-08-06T02:55:46;4.88;;;4.45;;
25045;SDS011;13044;49.304;12.840;2023-08-06T02:58:14;4.72;;;4.22;;
25045;SDS011;13044;49.304;12.840;2023-08-06T03:00:41;4.95;;;4.47;;
25045;SDS011;13044;49.304;12.840;2023-08-06T03:03:09;4.85;;;4.45;;
25045;SDS011;13044;49.304;12.840;2023-08-06T03:05:36;6.60;;;4.97;;
25045;SDS011;13044;49.304;12.840;2023-08-06T03:08:03;4.80;;;4.40;;
25045;SDS011;13044;49.304;12.840;2023-08-06T03:10:30;4.85;;;4.45;;
25045;SDS011;13044;49.304;12.840;2023-08-06T03:12:57;4.40;;;4.00;;
25045;SDS011;13044;49.304;12.840;2023-08-06T03:15:24;4.35;;;4.05;;
25045;SDS011;13044;49.304;12.840;2023-08-06T03:17:51;4.35;;;3.95;;
25045;SDS011;13044;49.304;12.840;2023-08-06T03:20:17;5.13;;;4.40;;
25045;SDS011;13044;49.304;12.840;2023-08-06T03:22:44;5.18;;;4.68;;
25045;SDS011;13044;49.304;12.840;2023-08-06T03:25:11;6.63;;;5.18;;
25045;SDS011;13044;49.304;12.840;2023-08-06T03:27:38;5.00;;;4.57;;
25045;SDS011;13044;49.304;12.840;2023-08-06T03:30:05;4.07;;;3.78;;
25045;SDS011;13044;49.304;12.840;2023-08-06T03:32:33;4.93;;;4.07;;
25045;SDS011;13044;49.304;12.840;2023-08-06T03:35:00;4.13;;;3.70;;
25045;SDS011;13044;49.304;12.840;2023-08-06T03:37:26;4.00;;;3.65;;
25045;SDS011;13044;49.304;12.840;2023-08-06T03:39:53;4.32;;;3.95;;
25045;SDS011;13044;49.304;12.840;2023-08-06T03:42:20;3.88;;;3.30;;
25045;SDS011;13044;49.304;12.840;2023-08-06T03:44:47;3.60;;;3.30;;
25045;SDS011;13044;49.304;12.840;2023-08-06T03:47:14;3.10;;;2.90;;
25045;SDS011;13044;49.304;12.840;2023-08-06T03:49:40;3.58;;;3.28;;
25045;SDS011;13044;49.304;12.840;2023-08-06T03:52:07;3.13;;;2.83;;
25045;SDS011;13044;49.304;12.840;2023-08-06T03:54:35;2.70;;;2.50;;
25045;SDS011;13044;49.304;12.840;2023-08-06T03:57:01;2.88;;;2.67;;
25045;SDS011;13044;49.304;12.840;2023-08-06T03:59:29;3.53;;;3.22;;
25045;SDS011;13044;49.304;12.840;2023-08-06T04:01:55;2.53;;;2.33;;
25045;SDS011;13044;49.304;12.840;2023-08-06T04:04:22;2.97;;;2.78;;
25045;SDS011;13044;49.304;12.840;2023-08-06T04:06:49;4.15;;;2.55;;
25045;SDS011;13044;49.304;12.840;2023-08-06T04:09:16;2.63;;;2.42;;
25045;SDS011;13044;49.304;12.840;2023-08-06T04:11:43;2.92;;;2.30;;
25045;SDS011;13044;49.304;12.840;2023-08-06T04:14:10;2.58;;;2.35;;
25045;SDS011;13044;49.304;12.840;2023-08-06T04:16:37;3.10;;;2.83;;
25045;SDS011;13044;49.304;12.840;2023-08-06T04:19:04;3.03;;;2.55;;
25045;SDS011;13044;49.304;12.840;2023-08-06T04:21:31;2.42;;;2.22;;
25045;SDS011;13044;49.304;12.840;2023-08-06T04:23:57;3.13;;;2.83;;
25045;SDS011;13044;49.304;12.840;2023-08-06T04:26:24;2.80;;;2.60;;
25045;SDS011;13044;49.304;12.840;2023-08-06T04:28:51;2.72;;;2.45;;
25045;SDS011;13044;49.304;12.840;2023-08-06T04:31:18;2.88;;;2.47;;
25045;SDS011;13044;49.304;12.840;2023-08-06T04:33:45;2.45;;;2.25;;
25045;SDS011;13044;49.304;12.840;2023-08-06T04:36:12;2.90;;;2.70;;
25045;SDS011;13044;49.304;12.840;2023-08-06T04:38:39;4.00;;;2.85;;
25045;SDS011;13044;49.304;12.840;2023-08-06T04:41:10;2.70;;;2.50;;
25045;SDS011;13044;49.304;12.840;2023-08-06T04:43:37;6.03;;;2.72;;
25045;SDS011;13044;49.304;12.840;2023-08-06T04:46:05;3.30;;;2.67;;
25045;SDS011;13044;49.304;12.840;2023-08-06T04:48:32;2.60;;;2.22;;
25045;SDS011;13044;49.304;12.840;2023-08-06T04:50:59;3.10;;;2.80;;
25045;SDS011;13044;49.304;12.840;2023-08-06T04:53:26;2.90;;;2.60;;
25045;SDS011;13044;49.304;12.840;2023-08-06T04:55:52;3.50;;;2.78;;
25045;SDS011;13044;49.304;12.840;2023-08-06T04:58:19;3.83;;;3.08;;
25045;SDS011;13044;49.304;12.840;2023-08-06T05:00:46;2.70;;;2.50;;
25045;SDS011;13044;49.304;12.840;2023-08-06T05:03:13;2.70;;;2.50;;
25045;SDS011;13044;49.304;12.840;2023-08-06T05:05:40;2.60;;;2.40;;
25045;SDS011;13044;49.304;12.840;2023-08-06T05:08:11;2.85;;;2.65;;
25045;SDS011;13044;49.304;12.840;2023-08-06T05:10:44;3.13;;;2.90;;
25045;SDS011;13044;49.304;12.840;2023-08-06T05:13:11;2.58;;;2.20;;
25045;SDS011;13044;49.304;12.840;2023-08-06T05:15:38;2.50;;;2.30;;
25045;SDS011;13044;49.304;12.840;2023-08-06T05:18:08;2.58;;;2.28;;
25045;SDS011;13044;49.304;12.840;2023-08-06T05:20:36;3.03;;;2.83;;
25045;SDS011;13044;49.304;12.840;2023-08-06T05:23:04;2.95;;;2.60;;
25045;SDS011;13044;49.304;12.840;2023-08-06T05:25:31;3.10;;;2.80;;
25045;SDS011;13044;49.304;12.840;2023-08-06T05:28:00;2.88;;;2.67;;
25045;SDS011;13044;49.304;12.840;2023-08-06T05:30:27;3.80;;;3.10;;
25045;SDS011;13044;49.304;12.840;2023-08-06T05:32:54;3.25;;;2.95;;
25045;SDS011;13044;49.304;12.840;2023-08-06T05:35:22;3.28;;;2.97;;
25045;SDS011;13044;49.304;12.840;2023-08-06T05:37:52;2.53;;;2.33;;
25045;SDS011;13044;49.304;12.840;2023-08-06T05:40:19;2.90;;;2.63;;
25045;SDS011;13044;49.304;12.840;2023-08-06T05:42:46;2.90;;;2.60;;
25045;SDS011;13044;49.304;12.840;2023-08-06T05:45:13;2.95;;;2.65;;
25045;SDS011;13044;49.304;12.840;2023-08-06T05:47:40;2.95;;;2.63;;
25045;SDS011;13044;49.304;12.840;2023-08-06T05:50:07;2.97;;;2.70;;
25045;SDS011;13044;49.304;12.840;2023-08-06T05:52:35;2.63;;;2.42;;
25045;SDS011;13044;49.304;12.840;2023-08-06T05:55:02;3.33;;;2.22;;
25045;SDS011;13044;49.304;12.840;2023-08-06T05:57:29;2.40;;;2.20;;
25045;SDS011;13044;49.304;12.840;2023-08-06T05:59:56;8.15;;;2.70;;
25045;SDS011;13044;49.304;12.840;2023-08-06T06:02:23;2.60;;;2.40;;
25045;SDS011;13044;49.304;12.840;2023-08-06T06:04:50;2.53;;;2.33;;
25045;SDS011;13044;49.304;12.840;2023-08-06T06:07:16;2.70;;;2.50;;
25045;SDS011;13044;49.304;12.840;2023-08-06T06:09:43;2.60;;;2.40;;
25045;SDS011;13044;49.304;12.840;2023-08-06T06:12:10;2.20;;;2.05;;
25045;SDS011;13044;49.304;12.840;2023-08-06T06:14:37;2.85;;;2.28;;
25045;SDS011;13044;49.304;12.840;2023-08-06T06:17:04;2.60;;;2.20;;
25045;SDS011;13044;49.304;12.840;2023-08-06T06:19:31;2.50;;;2.20;;
25045;SDS011;13044;49.304;12.840;2023-08-06T06:21:58;2.72;;;2.15;;
25045;SDS011;13044;49.304;12.840;2023-08-06T06:24:25;2.78;;;2.17;;
25045;SDS011;13044;49.304;12.840;2023-08-06T06:26:51;2.30;;;2.10;;
25045;SDS011;13044;49.304;12.840;2023-08-06T06:29:18;2.17;;;1.95;;
25045;SDS011;13044;49.304;12.840;2023-08-06T06:31:45;2.30;;;2.08;;
25045;SDS011;13044;49.304;12.840;2023-08-06T06:34:12;2.30;;;2.10;;
25045;SDS011;13044;49.304;12.840;2023-08-06T06:36:39;2.15;;;1.95;;
25045;SDS011;13044;49.304;12.840;2023-08-06T06:39:06;2.55;;;2.35;;
25045;SDS011;13044;49.304;12.840;2023-08-06T06:41:34;2.65;;;2.45;;
25045;SDS011;13044;49.304;12.840;2023-08-06T06:44:01;2.45;;;2.08;;
25045;SDS011;13044;49.304;12.840;2023-08-06T06:46:28;2.35;;;2.03;;
25045;SDS011;13044;49.304;12.840;2023-08-06T06:48:55;2.38;;;1.98;;
25045;SDS011;13044;49.304;12.840;2023-08-06T06:51:21;2.63;;;2.42;;
25045;SDS011;13044;49.304;12.840;2023-08-06T06:53:48;1.83;;;1.73;;
25045;SDS011;13044;49.304;12.840;2023-08-06T06:56:15;2.30;;;2.10;;
25045;SDS011;13044;49.304;12.840;2023-08-06T06:58:42;2.10;;;1.90;;
25045;SDS011;13044;49.304;12.840;2023-08-06T07:01:09;2.00;;;1.90;;
25045;SDS011;13044;49.304;12.840;2023-08-06T07:03:38;2.15;;;1.80;;
25045;SDS011;13044;49.304;12.840;2023-08-06T07:06:05;2.45;;;1.85;;
25045;SDS011;13044;49.304;12.840;2023-08-06T07:08:33;2.47;;;2.00;;
25045;SDS011;13044;49.304;12.840;2023-08-06T07:11:01;2.03;;;1.83;;
25045;SDS011;13044;49.304;12.840;2023-08-06T07:13:32;3.47;;;1.80;;
25045;SDS011;13044;49.304;12.840;2023-08-06T07:16:00;2.78;;;1.85;;
25045;SDS011;13044;49.304;12.840;2023-08-06T07:18:27;1.92;;;1.75;;
25045;SDS011;13044;49.304;12.840;2023-08-06T07:20:55;1.80;;;1.65;;
25045;SDS011;13044;49.304;12.840;2023-08-06T07:23:24;2.83;;;2.00;;
25045;SDS011;13044;49.304;12.840;2023-08-06T07:25:52;4.38;;;1.85;;
25045;SDS011;13044;49.304;12.840;2023-08-06T07:28:19;2.22;;;2.03;;
25045;SDS011;13044;49.304;12.840;2023-08-06T07:30:46;2.08;;;1.98;;
25045;SDS011;13044;49.304;12.840;2023-08-06T07:33:14;2.17;;;1.98;;
25045;SDS011;13044;49.304;12.840;2023-08-06T07:35:40;4.28;;;2.45;;
25045;SDS011;13044;49.304;12.840;2023-08-06T07:38:07;2.13;;;2.03;;
25045;SDS011;13044;49.304;12.840;2023-08-06T07:40:35;2.33;;;2.13;;
25045;SDS011;13044;49.304;12.840;2023-08-06T07:43:06;2.10;;;1.90;;
25045;SDS011;13044;49.304;12.840;2023-08-06T07:45:35;1.85;;;1.70;;
25045;SDS011;13044;49.304;12.840;2023-08-06T07:48:03;1.80;;;1.70;;
25045;SDS011;13044;49.304;12.840;2023-08-06T07:50:30;3.58;;;2.08;;
25045;SDS011;13044;49.304;12.840;2023-08-06T07:52:58;3.35;;;2.50;;
25045;SDS011;13044;49.304;12.840;2023-08-06T07:55:25;2.22;;;1.90;;
25045;SDS011;13044;49.304;12.840;2023-08-06T07:57:52;4.47;;;2.40;;
25045;SDS011;13044;49.304;12.840;2023-08-06T08:00:20;3.13;;;2.33;;
25045;SDS011;13044;49.304;12.840;2023-08-06T08:02:46;2.42;;;2.22;;
25045;SDS011;13044;49.304;12.840;2023-08-06T08:05:14;2.42;;;2.20;;
25045;SDS011;13044;49.304;12.840;2023-08-06T08:07:41;2.97;;;2.30;;
25045;SDS011;13044;49.304;12.840;2023-08-06T08:10:08;2.22;;;1.90;;
25045;SDS011;13044;49.304;12.840;2023-08-06T08:12:35;2.33;;;2.10;;
25045;SDS011;13044;49.304;12.840;2023-08-06T08:15:01;3.42;;;2.35;;
25045;SDS011;13044;49.304;12.840;2023-08-06T08:17:29;2.25;;;2.05;;
25045;SDS011;13044;49.304;12.840;2023-08-06T08:19:56;2.63;;;2.15;;
25045;SDS011;13044;49.304;12.840;2023-08-06T08:22:23;4.88;;;2.05;;
25045;SDS011;13044;49.304;12.840;2023-08-06T08:24:50;4.47;;;2.28;;
25045;SDS011;13044;49.304;12.840;2023-08-06T08:27:17;2.70;;;2.13;;
25045;SDS011;13044;49.304;12.840;2023-08-06T08:29:44;2.30;;;2.10;;
25045;SDS011;13044;49.304;12.840;2023-08-06T08:32:10;2.70;;;2.00;;
25045;SDS011;13044;49.304;12.840;2023-08-06T08:34:37;3.75;;;2.20;;
25045;SDS011;13044;49.304;12.840;2023-08-06T08:37:04;2.88;;;2.00;;
25045;SDS011;13044;49.304;12.840;2023-08-06T08:39:32;2.63;;;2.00;;
25045;SDS011;13044;49.304;12.840;2023-08-06T08:41:59;2.30;;;2.10;;
25045;SDS011;13044;49.304;12.840;2023-08-06T08:44:28;2.17;;;1.98;;
25045;SDS011;13044;49.304;12.840;2023-08-06T08:46:58;2.30;;;2.10;;
25045;SDS011;13044;49.304;12.840;2023-08-06T08:49:26;5.03;;;2.10;;
25045;SDS011;13044;49.304;12.840;2023-08-06T08:51:54;1.88;;;1.70;;
25045;SDS011;13044;49.304;12.840;2023-08-06T08:54:23;1.88;;;1.77;;
25045;SDS011;13044;49.304;12.840;2023-08-06T08:56:50;2.88;;;2.20;;
25045;SDS011;13044;49.304;12.840;2023-08-06T08:59:17;2.13;;;1.85;;
25045;SDS011;13044;49.304;12.840;2023-08-06T09:01:44;2.10;;;1.90;;
25045;SDS011;13044;49.304;12.840;2023-08-06T09:04:18;2.67;;;2.35;;
25045;SDS011;13044;49.304;12.840;2023-08-06T09:06:50;2.42;;;1.92;;
25045;SDS011;13044;49.304;12.840;2023-08-06T09:09:25;3.88;;;2.08;;
25045;SDS011;13044;49.304;12.840;2023-08-06T09:11:59;2.38;;;1.92;;
25045;SDS011;13044;49.304;12.840;2023-08-06T09:14:30;1.83;;;1.73;;
25045;SDS011;13044;49.304;12.840;2023-08-06T09:16:57;2.47;;;1.90;;
25045;SDS011;13044;49.304;12.840;2023-08-06T09:19:25;1.98;;;1.88;;
25045;SDS011;13044;49.304;12.840;2023-08-06T09:21:55;2.20;;;2.00;;
25045;SDS011;13044;49.304;12.840;2023-08-06T09:24:23;2.00;;;1.90;;
25045;SDS011;13044;49.304;12.840;2023-08-06T09:26:50;2.10;;;1.90;;
25045;SDS011;13044;49.304;12.840;2023-08-06T09:29:17;3.58;;;2.20;;
25045;SDS011;13044;49.304;12.840;2023-08-06T09:31:45;1.70;;;1.60;;
25045;SDS011;13044;49.304;12.840;2023-08-06T09:34:20;2.03;;;1.83;;
25045;SDS011;13044;49.304;12.840;2023-08-06T09:36:49;2.17;;;1.80;;
25045;SDS011;13044;49.304;12.840;2023-08-06T09:39:18;2.22;;;2.03;;
25045;SDS011;13044;49.304;12.840;2023-08-06T09:41:57;1.90;;;1.80;;
25045;SDS011;13044;49.304;12.840;2023-08-06T09:44:26;1.88;;;1.60;;
25045;SDS011;13044;49.304;12.840;2023-08-06T09:46:56;1.70;;;1.60;;
25045;SDS011;13044;49.304;12.840;2023-08-06T09:52:12;2.17;;;1.85;;
25045;SDS011;13044;49.304;12.840;2023-08-06T09:54:43;2.13;;;1.90;;
25045;SDS011;13044;49.304;12.840;2023-08-06T09:57:11;1.95;;;1.75;;
25045;SDS011;13044;49.304;12.840;2023-08-06T09:59:38;2.42;;;1.70;;
25045;SDS011;13044;49.304;12.840;2023-08-06T10:02:10;1.88;;;1.45;;
25045;SDS011;13044;49.304;12.840;2023-08-06T10:04:40;1.58;;;1.45;;
25045;SDS011;13044;49.304;12.840;2023-08-06T10:07:14;1.75;;;1.25;;
25045;SDS011;13044;49.304;12.840;2023-08-06T10:09:42;2.08;;;1.85;;
25045;SDS011;13044;49.304;12.840;2023-08-06T10:12:09;1.98;;;1.52;;
25045;SDS011;13044;49.304;12.840;2023-08-06T10:14:36;1.77;;;1.60;;
25045;SDS011;13044;49.304;12.840;2023-08-06T10:17:04;1.80;;;1.25;;
25045;SDS011;13044;49.304;12.840;2023-08-06T10:19:32;1.98;;;1.30;;
25045;SDS011;13044;49.304;12.840;2023-08-06T10:25:01;5.05;;;2.60;;
25045;SDS011;13044;49.304;12.840;2023-08-06T10:30:29;2.03;;;1.40;;
25045;SDS011;13044;49.304;12.840;2023-08-06T10:32:59;2.90;;;1.48;;
25045;SDS011;13044;49.304;12.840;2023-08-06T10:35:28;2.15;;;1.40;;
25045;SDS011;13044;49.304;12.840;2023-08-06T10:38:05;1.50;;;1.40;;
25045;SDS011;13044;49.304;12.840;2023-08-06T10:40:37;1.30;;;1.20;;
25045;SDS011;13044;49.304;12.840;2023-08-06T10:43:07;3.00;;;1.25;;
25045;SDS011;13044;49.304;12.840;2023-08-06T10:45:36;4.50;;;2.10;;
25045;SDS011;13044;49.304;12.840;2023-08-06T10:48:04;2.45;;;1.58;;
25045;SDS011;13044;49.304;12.840;2023-08-06T10:50:31;1.27;;;1.00;;
25045;SDS011;13044;49.304;12.840;2023-08-06T10:53:03;1.30;;;1.20;;
25045;SDS011;13044;49.304;12.840;2023-08-06T10:55:32;2.72;;;1.27;;
25045;SDS011;13044;49.304;12.840;2023-08-06T10:57:59;1.33;;;1.17;;
25045;SDS011;13044;49.304;12.840;2023-08-06T11:00:26;1.55;;;1.35;;
25045;SDS011;13044;49.304;12.840;2023-08-06T11:02:53;0.82;;;0.82;;
25045;SDS011;13044;49.304;12.840;2023-08-06T11:05:21;3.03;;;1.15;;
25045;SDS011;13044;49.304;12.840;2023-08-06T11:07:48;2.05;;;1.40;;
25045;SDS011;13044;49.304;12.840;2023-08-06T11:10:15;5.90;;;2.50;;
25045;SDS011;13044;49.304;12.840;2023-08-06T11:12:42;5.03;;;2.80;;
25045;SDS011;13044;49.304;12.840;2023-08-06T11:15:09;3.03;;;1.92;;
25045;SDS011;13044;49.304;12.840;2023-08-06T11:17:39;1.95;;;1.05;;
25045;SDS011;13044;49.304;12.840;2023-08-06T11:20:07;1.70;;;0.80;;
25045;SDS011;13044;49.304;12.840;2023-08-06T11:22:36;0.80;;;0.80;;
25045;SDS011;13044;49.304;12.840;2023-08-06T11:25:06;0.70;;;0.70;;
25045;SDS011;13044;49.304;12.840;2023-08-06T11:27:33;0.85;;;0.82;;
25045;SDS011;13044;49.304;12.840;2023-08-06T11:30:00;2.67;;;0.80;;
25045;SDS011;13044;49.304;12.840;2023-08-06T11:32:27;0.68;;;0.60;;
25045;SDS011;13044;49.304;12.840;2023-08-06T11:34:55;1.33;;;1.17;;
25045;SDS011;13044;49.304;12.840;2023-08-06T11:37:22;0.98;;;0.93;;
25045;SDS011;13044;49.304;12.840;2023-08-06T11:39:51;0.60;;;0.60;;
25045;SDS011;13044;49.304;12.840;2023-08-06T11:42:18;0.82;;;0.82;;
25045;SDS011;13044;49.304;12.840;2023-08-06T11:44:45;0.65;;;0.65;;
25045;SDS011;13044;49.304;12.840;2023-08-06T11:47:14;0.88;;;0.88;;
25045;SDS011;13044;49.304;12.840;2023-08-06T11:52:21;0.75;;;0.60;;
25045;SDS011;13044;49.304;12.840;2023-08-06T11:57:30;0.93;;;0.85;;
25045;SDS011;13044;49.304;12.840;2023-08-06T12:00:05;3.17;;;1.20;;
25045;SDS011;13044;49.304;12.840;2023-08-06T12:02:40;3.58;;;2.45;;
25045;SDS011;13044;49.304;12.840;2023-08-06T12:05:10;2.08;;;1.00;;
25045;SDS011;13044;49.304;12.840;2023-08-06T12:07:45;0.80;;;0.80;;
25045;SDS011;13044;49.304;12.840;2023-08-06T12:10:13;0.80;;;0.80;;
25045;SDS011;13044;49.304;12.840;2023-08-06T12:12:42;0.52;;;0.52;;
25045;SDS011;13044;49.304;12.840;2023-08-06T12:15:09;0.93;;;0.70;;
25045;SDS011;13044;49.304;12.840;2023-08-06T12:17:37;1.85;;;0.90;;
25045;SDS011;13044;49.304;12.840;2023-08-06T12:20:05;0.60;;;0.60;;
25045;SDS011;13044;49.304;12.840;2023-08-06T12:22:33;0.55;;;0.55;;
25045;SDS011;13044;49.304;12.840;2023-08-06T12:25:02;0.60;;;0.57;;
25045;SDS011;13044;49.304;12.840;2023-08-06T12:27:42;0.50;;;0.50;;
25045;SDS011;13044;49.304;12.840;2023-08-06T12:30:11;0.30;;;0.30;;
25045;SDS011;13044;49.304;12.840;2023-08-06T12:32:39;0.90;;;0.50;;
25045;SDS011;13044;49.304;12.840;2023-08-06T12:35:07;0.75;;;0.50;;
25045;SDS011;13044;49.304;12.840;2023-08-06T12:37:35;0.50;;;0.40;;
25045;SDS011;13044;49.304;12.840;2023-08-06T12:40:02;0.60;;;0.40;;
25045;SDS011;13044;49.304;12.840;2023-08-06T12:42:50;0.65;;;0.30;;
25045;SDS011;13044;49.304;12.840;2023-08-06T12:45:17;0.30;;;0.30;;
25045;SDS011;13044;49.304;12.840;2023-08-06T12:47:48;0.43;;;0.43;;
25045;SDS011;13044;49.304;12.840;2023-08-06T12:50:16;0.38;;;0.38;;
25045;SDS011;13044;49.304;12.840;2023-08-06T13:00:56;2.15;;;0.32;;
25045;SDS011;13044;49.304;12.840;2023-08-06T13:03:23;0.20;;;0.20;;
25045;SDS011;13044;49.304;12.840;2023-08-06T13:05:51;0.32;;;0.32;;
25045;SDS011;13044;49.304;12.840;2023-08-06T13:08:18;0.45;;;0.45;;
25045;SDS011;13044;49.304;12.840;2023-08-06T13:10:45;1.02;;;0.43;;
25045;SDS011;13044;49.304;12.840;2023-08-06T13:13:12;0.50;;;0.40;;
25045;SDS011;13044;49.304;12.840;2023-08-06T13:15:38;0.50;;;0.50;;
25045;SDS011;13044;49.304;12.840;2023-08-06T13:18:05;0.50;;;0.32;;
25045;SDS011;13044;49.304;12.840;2023-08-06T13:20:32;0.43;;;0.40;;
25045;SDS011;13044;49.304;12.840;2023-08-06T13:22:59;0.50;;;0.50;;
25045;SDS011;13044;49.304;12.840;2023-08-06T13:25:27;0.38;;;0.30;;
25045;SDS011;13044;49.304;12.840;2023-08-06T13:28:00;0.20;;;0.20;;
25045;SDS011;13044;49.304;12.840;2023-08-06T13:30:27;0.30;;;0.25;;
25045;SDS011;13044;49.304;12.840;2023-08-06T13:32:54;0.22;;;0.22;;
25045;SDS011;13044;49.304;12.840;2023-08-06T13:35:22;2.08;;;0.35;;
25045;SDS011;13044;49.304;12.840;2023-08-06T13:37:49;0.30;;;0.30;;
25045;SDS011;13044;49.304;12.840;2023-08-06T13:40:17;0.40;;;0.40;;
25045;SDS011;13044;49.304;12.840;2023-08-06T13:42:43;0.40;;;0.40;;
25045;SDS011;13044;49.304;12.840;2023-08-06T13:45:10;0.63;;;0.40;;
25045;SDS011;13044;49.304;12.840;2023-08-06T13:47:37;2.42;;;0.30;;
25045;SDS011;13044;49.304;12.840;2023-08-06T13:50:04;0.70;;;0.40;;
25045;SDS011;13044;49.304;12.840;2023-08-06T13:52:32;4.72;;;0.93;;
25045;SDS011;13044;49.304;12.840;2023-08-06T13:54:59;0.50;;;0.47;;
25045;SDS011;13044;49.304;12.840;2023-08-06T13:57:25;0.40;;;0.40;;
25045;SDS011;13044;49.304;12.840;2023-08-06T13:59:52;0.30;;;0.30;;
25045;SDS011;13044;49.304;12.840;2023-08-06T14:02:19;0.52;;;0.40;;
25045;SDS011;13044;49.304;12.840;2023-08-06T14:04:46;1.67;;;0.40;;
25045;SDS011;13044;49.304;12.840;2023-08-06T14:07:13;0.30;;;0.30;;
25045;SDS011;13044;49.304;12.840;2023-08-06T14:09:40;0.93;;;0.80;;
25045;SDS011;13044;49.304;12.840;2023-08-06T14:12:08;2.55;;;0.90;;
25045;SDS011;13044;49.304;12.840;2023-08-06T14:14:35;0.95;;;0.95;;
25045;SDS011;13044;49.304;12.840;2023-08-06T14:17:02;0.90;;;0.90;;
25045;SDS011;13044;49.304;12.840;2023-08-06T14:19:30;1.20;;;1.17;;
25045;SDS011;13044;49.304;12.840;2023-08-06T14:21:57;1.13;;;1.05;;
25045;SDS011;13044;49.304;12.840;2023-08-06T14:24:24;1.27;;;0.80;;
25045;SDS011;13044;49.304;12.840;2023-08-06T14:26:51;0.40;;;0.40;;
25045;SDS011;13044;49.304;12.840;2023-08-06T14:29:18;0.50;;;0.50;;
25045;SDS011;13044;49.304;12.840;2023-08-06T14:31:45;0.65;;;0.65;;
25045;SDS011;13044;49.304;12.840;2023-08-06T14:34:12;0.37;;;0.37;;
25045;SDS011;13044;49.304;12.840;2023-08-06T14:36:39;0.43;;;0.32;;
25045;SDS011;13044;49.304;12.840;2023-08-06T14:39:06;1.13;;;0.55;;
25045;SDS011;13044;49.304;12.840;2023-08-06T14:41:33;1.38;;;1.30;;
25045;SDS011;13044;49.304;12.840;2023-08-06T14:44:00;1.42;;;1.27;;
25045;SDS011;13044;49.304;12.840;2023-08-06T14:46:27;1.15;;;0.50;;
25045;SDS011;13044;49.304;12.840;2023-08-06T14:48:54;0.68;;;0.52;;
25045;SDS011;13044;49.304;12.840;2023-08-06T14:51:20;0.95;;;0.43;;
25045;SDS011;13044;49.304;12.840;2023-08-06T14:53:48;0.52;;;0.50;;
25045;SDS011;13044;49.304;12.840;2023-08-06T14:56:15;0.55;;;0.47;;
25045;SDS011;13044;49.304;12.840;2023-08-06T14:58:42;0.45;;;0.38;;
25045;SDS011;13044;49.304;12.840;2023-08-06T15:01:09;0.52;;;0.30;;
25045;SDS011;13044;49.304;12.840;2023-08-06T15:03:36;1.35;;;0.50;;
25045;SDS011;13044;49.304;12.840;2023-08-06T15:06:03;0.30;;;0.30;;